sensor_id;sensor_type;location;lat;lon;timestamp;P1;durP1;ratioP1;P2;durP2;ratioP2
43620;SDS011;29213;50.770;7.298;2023-07-28T00:00:47;3.50;;;1.10;;
43620;SDS011;29213;50.770;7.298;2023-07-28T00:03:13;3.45;;;1.20;;
43620;SDS011;29213;50.770;7.298;2023-07-28T00:05:38;2.45;;;1.17;;
43620;SDS011;29213;50.770;7.298;2023-07-28T00:08:03;2.33;;;1.20;;
43620;SDS011;29213;50.770;7.298;2023-07-28T00:10:29;2.35;;;1.20;;
43620;SDS011;29213;50.770;7.298;2023-07-28T00:12:54;4.00;;;1.17;;
43620;SDS011;29213;50.770;7.298;2023-07-28T00:15:20;2.70;;;1.17;;
43620;SDS011;29213;50.770;7.298;2023-07-28T00:17:46;2.80;;;1.20;;
43620;SDS011;29213;50.770;7.298;2023-07-28T00:20:11;2.33;;;1.20;;
43620;SDS011;29213;50.770;7.298;2023-07-28T00:22:37;2.70;;;1.30;;
43620;SDS011;29213;50.770;7.298;2023-07-28T00:25:02;2.80;;;1.20;;
43620;SDS011;29213;50.770;7.298;2023-07-28T00:27:28;3.45;;;1.40;;
43620;SDS011;29213;50.770;7.298;2023-07-28T00:29:53;2.50;;;1.20;;
43620;SDS011;29213;50.770;7.298;2023-07-28T00:32:18;2.60;;;1.10;;
43620;SDS011;29213;50.770;7.298;2023-07-28T00:34:44;2.75;;;1.02;;
43620;SDS011;29213;50.770;7.298;2023-07-28T00:37:09;2.42;;;1.25;;
43620;SDS011;29213;50.770;7.298;2023-07-28T00:39:35;2.50;;;1.23;;
43620;SDS011;29213;50.770;7.298;2023-07-28T00:42:00;2.25;;;1.00;;
43620;SDS011;29213;50.770;7.298;2023-07-28T00:44:26;2.53;;;1.27;;
43620;SDS011;29213;50.770;7.298;2023-07-28T00:46:51;5.28;;;1.30;;
43620;SDS011;29213;50.770;7.298;2023-07-28T00:49:17;2.10;;;1.10;;
43620;SDS011;29213;50.770;7.298;2023-07-28T00:51:43;2.05;;;1.00;;
43620;SDS011;29213;50.770;7.298;2023-07-28T00:54:08;2.35;;;1.17;;
43620;SDS011;29213;50.770;7.298;2023-07-28T00:56:34;2.08;;;1.10;;
43620;SDS011;29213;50.770;7.298;2023-07-28T00:59:00;3.70;;;1.35;;
43620;SDS011;29213;50.770;7.298;2023-07-28T01:01:25;3.38;;;1.25;;
43620;SDS011;29213;50.770;7.298;2023-07-28T01:03:52;2.05;;;1.00;;
43620;SDS011;29213;50.770;7.298;2023-07-28T01:06:18;1.95;;;1.00;;
43620;SDS011;29213;50.770;7.298;2023-07-28T01:08:49;2.30;;;1.10;;
43620;SDS011;29213;50.770;7.298;2023-07-28T01:11:21;3.47;;;1.20;;
43620;SDS011;29213;50.770;7.298;2023-07-28T01:13:47;2.25;;;1.17;;
43620;SDS011;29213;50.770;7.298;2023-07-28T01:16:12;3.35;;;1.10;;
43620;SDS011;29213;50.770;7.298;2023-07-28T01:18:37;2.42;;;1.23;;
43620;SDS011;29213;50.770;7.298;2023-07-28T01:21:03;2.50;;;1.10;;
43620;SDS011;29213;50.770;7.298;2023-07-28T01:26:36;2.97;;;1.30;;
43620;SDS011;29213;50.770;7.298;2023-07-28T01:29:03;3.05;;;1.17;;
43620;SDS011;29213;50.770;7.298;2023-07-28T01:31:29;2.80;;;1.30;;
43620;SDS011;29213;50.770;7.298;2023-07-28T01:33:54;2.70;;;1.30;;
43620;SDS011;29213;50.770;7.298;2023-07-28T01:36:20;2.20;;;1.10;;
43620;SDS011;29213;50.770;7.298;2023-07-28T01:38:45;2.60;;;1.30;;
43620;SDS011;29213;50.770;7.298;2023-07-28T01:41:11;1.70;;;1.00;;
43620;SDS011;29213;50.770;7.298;2023-07-28T01:43:36;2.40;;;1.27;;
43620;SDS011;29213;50.770;7.298;2023-07-28T01:46:02;2.30;;;1.10;;
43620;SDS011;29213;50.770;7.298;2023-07-28T01:48:27;2.83;;;1.10;;
43620;SDS011;29213;50.770;7.298;2023-07-28T01:50:52;2.10;;;1.17;;
43620;SDS011;29213;50.770;7.298;2023-07-28T01:53:18;4.00;;;1.25;;
43620;SDS011;29213;50.770;7.298;2023-07-28T01:55:43;1.85;;;1.00;;
43620;SDS011;29213;50.770;7.298;2023-07-28T01:58:08;2.05;;;0.95;;
43620;SDS011;29213;50.770;7.298;2023-07-28T02:00:34;2.40;;;1.10;;
43620;SDS011;29213;50.770;7.298;2023-07-28T02:03:00;2.10;;;1.10;;
43620;SDS011;29213;50.770;7.298;2023-07-28T02:05:27;1.90;;;1.08;;
43620;SDS011;29213;50.770;7.298;2023-07-28T02:07:53;2.00;;;0.80;;
43620;SDS011;29213;50.770;7.298;2023-07-28T02:10:19;2.55;;;0.90;;
43620;SDS011;29213;50.770;7.298;2023-07-28T02:12:44;1.92;;;0.90;;
43620;SDS011;29213;50.770;7.298;2023-07-28T02:15:11;1.98;;;0.80;;
43620;SDS011;29213;50.770;7.298;2023-07-28T02:17:36;1.95;;;0.93;;
43620;SDS011;29213;50.770;7.298;2023-07-28T02:20:02;1.83;;;0.90;;
43620;SDS011;29213;50.770;7.298;2023-07-28T02:22:28;2.20;;;0.90;;
43620;SDS011;29213;50.770;7.298;2023-07-28T02:24:54;1.90;;;0.80;;
43620;SDS011;29213;50.770;7.298;2023-07-28T02:27:19;1.38;;;0.77;;
43620;SDS011;29213;50.770;7.298;2023-07-28T02:29:45;2.65;;;0.85;;
43620;SDS011;29213;50.770;7.298;2023-07-28T02:32:11;2.72;;;0.70;;
43620;SDS011;29213;50.770;7.298;2023-07-28T02:34:36;1.20;;;0.60;;
43620;SDS011;29213;50.770;7.298;2023-07-28T02:37:01;1.90;;;0.82;;
43620;SDS011;29213;50.770;7.298;2023-07-28T02:39:27;1.38;;;0.80;;
43620;SDS011;29213;50.770;7.298;2023-07-28T02:41:53;1.48;;;0.70;;
43620;SDS011;29213;50.770;7.298;2023-07-28T02:44:18;1.00;;;0.63;;
43620;SDS011;29213;50.770;7.298;2023-07-28T02:46:43;1.08;;;0.73;;
43620;SDS011;29213;50.770;7.298;2023-07-28T02:49:09;2.63;;;0.70;;
43620;SDS011;29213;50.770;7.298;2023-07-28T02:51:34;1.50;;;0.70;;
43620;SDS011;29213;50.770;7.298;2023-07-28T02:54:00;1.88;;;0.65;;
43620;SDS011;29213;50.770;7.298;2023-07-28T02:56:25;1.55;;;0.80;;
43620;SDS011;29213;50.770;7.298;2023-07-28T02:58:51;1.48;;;0.73;;
43620;SDS011;29213;50.770;7.298;2023-07-28T03:01:17;1.25;;;0.63;;
43620;SDS011;29213;50.770;7.298;2023-07-28T03:03:42;1.42;;;0.70;;
43620;SDS011;29213;50.770;7.298;2023-07-28T03:06:08;2.58;;;0.80;;
43620;SDS011;29213;50.770;7.298;2023-07-28T03:08:34;1.15;;;0.65;;
43620;SDS011;29213;50.770;7.298;2023-07-28T03:10:59;1.30;;;0.70;;
43620;SDS011;29213;50.770;7.298;2023-07-28T03:13:27;1.15;;;0.55;;
43620;SDS011;29213;50.770;7.298;2023-07-28T03:15:53;0.70;;;0.45;;
43620;SDS011;29213;50.770;7.298;2023-07-28T03:18:19;2.25;;;0.90;;
43620;SDS011;29213;50.770;7.298;2023-07-28T03:20:45;1.80;;;0.70;;
43620;SDS011;29213;50.770;7.298;2023-07-28T03:23:11;2.10;;;0.70;;
43620;SDS011;29213;50.770;7.298;2023-07-28T03:25:36;1.52;;;0.70;;
43620;SDS011;29213;50.770;7.298;2023-07-28T03:28:02;1.45;;;0.70;;
43620;SDS011;29213;50.770;7.298;2023-07-28T03:30:27;2.10;;;1.00;;
43620;SDS011;29213;50.770;7.298;2023-07-28T03:32:52;1.40;;;0.70;;
43620;SDS011;29213;50.770;7.298;2023-07-28T03:35:18;1.17;;;0.70;;
43620;SDS011;29213;50.770;7.298;2023-07-28T03:37:43;2.13;;;0.70;;
43620;SDS011;29213;50.770;7.298;2023-07-28T03:40:09;2.35;;;0.70;;
43620;SDS011;29213;50.770;7.298;2023-07-28T03:42:34;1.33;;;0.70;;
43620;SDS011;29213;50.770;7.298;2023-07-28T03:45:00;1.83;;;0.88;;
43620;SDS011;29213;50.770;7.298;2023-07-28T03:47:25;1.75;;;0.70;;
43620;SDS011;29213;50.770;7.298;2023-07-28T03:49:50;1.27;;;0.70;;
43620;SDS011;29213;50.770;7.298;2023-07-28T03:52:16;2.20;;;0.80;;
43620;SDS011;29213;50.770;7.298;2023-07-28T03:54:42;1.10;;;0.70;;
43620;SDS011;29213;50.770;7.298;2023-07-28T03:57:08;1.83;;;0.88;;
43620;SDS011;29213;50.770;7.298;2023-07-28T03:59:34;1.73;;;0.73;;
43620;SDS011;29213;50.770;7.298;2023-07-28T04:01:59;1.35;;;0.68;;
43620;SDS011;29213;50.770;7.298;2023-07-28T04:04:24;1.05;;;0.60;;
43620;SDS011;29213;50.770;7.298;2023-07-28T04:06:50;3.95;;;0.60;;
43620;SDS011;29213;50.770;7.298;2023-07-28T04:09:15;1.98;;;0.70;;
43620;SDS011;29213;50.770;7.298;2023-07-28T04:11:42;2.33;;;0.73;;
43620;SDS011;29213;50.770;7.298;2023-07-28T04:14:08;5.53;;;0.80;;
43620;SDS011;29213;50.770;7.298;2023-07-28T04:16:33;1.35;;;0.68;;
43620;SDS011;29213;50.770;7.298;2023-07-28T04:18:59;1.88;;;0.80;;
43620;SDS011;29213;50.770;7.298;2023-07-28T04:21:24;2.20;;;0.90;;
43620;SDS011;29213;50.770;7.298;2023-07-28T04:23:50;0.70;;;0.50;;
43620;SDS011;29213;50.770;7.298;2023-07-28T04:26:16;1.23;;;0.60;;
43620;SDS011;29213;50.770;7.298;2023-07-28T04:28:42;1.70;;;0.70;;
43620;SDS011;29213;50.770;7.298;2023-07-28T04:31:07;2.08;;;0.75;;
43620;SDS011;29213;50.770;7.298;2023-07-28T04:33:33;1.15;;;0.70;;
43620;SDS011;29213;50.770;7.298;2023-07-28T04:35:59;3.38;;;0.80;;
43620;SDS011;29213;50.770;7.298;2023-07-28T04:38:24;1.30;;;0.63;;
43620;SDS011;29213;50.770;7.298;2023-07-28T04:40:50;1.88;;;0.80;;
43620;SDS011;29213;50.770;7.298;2023-07-28T04:43:15;2.30;;;0.90;;
43620;SDS011;29213;50.770;7.298;2023-07-28T04:45:41;1.60;;;0.88;;
43620;SDS011;29213;50.770;7.298;2023-07-28T04:48:06;0.93;;;0.60;;
43620;SDS011;29213;50.770;7.298;2023-07-28T04:50:31;1.48;;;0.82;;
43620;SDS011;29213;50.770;7.298;2023-07-28T04:52:59;1.02;;;0.70;;
43620;SDS011;29213;50.770;7.298;2023-07-28T04:55:25;1.25;;;0.60;;
43620;SDS011;29213;50.770;7.298;2023-07-28T04:57:52;1.70;;;0.70;;
43620;SDS011;29213;50.770;7.298;2023-07-28T05:00:18;0.88;;;0.57;;
43620;SDS011;29213;50.770;7.298;2023-07-28T05:02:43;1.30;;;0.70;;
43620;SDS011;29213;50.770;7.298;2023-07-28T05:05:09;2.33;;;0.60;;
43620;SDS011;29213;50.770;7.298;2023-07-28T05:07:34;1.58;;;0.50;;
43620;SDS011;29213;50.770;7.298;2023-07-28T05:10:00;0.95;;;0.60;;
43620;SDS011;29213;50.770;7.298;2023-07-28T05:12:25;1.52;;;0.50;;
43620;SDS011;29213;50.770;7.298;2023-07-28T05:14:50;0.95;;;0.60;;
43620;SDS011;29213;50.770;7.298;2023-07-28T05:17:16;1.40;;;0.68;;
43620;SDS011;29213;50.770;7.298;2023-07-28T05:19:41;1.05;;;0.60;;
43620;SDS011;29213;50.770;7.298;2023-07-28T05:22:07;1.52;;;0.70;;
43620;SDS011;29213;50.770;7.298;2023-07-28T05:24:33;1.17;;;0.60;;
43620;SDS011;29213;50.770;7.298;2023-07-28T05:26:59;1.27;;;0.70;;
43620;SDS011;29213;50.770;7.298;2023-07-28T05:29:24;0.65;;;0.50;;
43620;SDS011;29213;50.770;7.298;2023-07-28T05:31:50;0.98;;;0.50;;
43620;SDS011;29213;50.770;7.298;2023-07-28T05:34:15;1.33;;;0.70;;
43620;SDS011;29213;50.770;7.298;2023-07-28T05:36:40;1.00;;;0.70;;
43620;SDS011;29213;50.770;7.298;2023-07-28T05:39:06;1.00;;;0.57;;
43620;SDS011;29213;50.770;7.298;2023-07-28T05:41:31;2.45;;;0.52;;
43620;SDS011;29213;50.770;7.298;2023-07-28T05:43:57;1.35;;;0.60;;
43620;SDS011;29213;50.770;7.298;2023-07-28T05:46:22;1.40;;;0.50;;
43620;SDS011;29213;50.770;7.298;2023-07-28T05:48:48;1.67;;;0.70;;
43620;SDS011;29213;50.770;7.298;2023-07-28T05:51:13;1.17;;;0.63;;
43620;SDS011;29213;50.770;7.298;2023-07-28T05:53:39;0.88;;;0.45;;
43620;SDS011;29213;50.770;7.298;2023-07-28T05:56:04;1.15;;;0.60;;
43620;SDS011;29213;50.770;7.298;2023-07-28T05:58:29;1.30;;;0.73;;
43620;SDS011;29213;50.770;7.298;2023-07-28T06:00:55;2.58;;;0.70;;
43620;SDS011;29213;50.770;7.298;2023-07-28T06:03:20;1.63;;;0.90;;
43620;SDS011;29213;50.770;7.298;2023-07-28T06:05:46;0.70;;;0.60;;
43620;SDS011;29213;50.770;7.298;2023-07-28T06:08:11;2.05;;;0.77;;
43620;SDS011;29213;50.770;7.298;2023-07-28T06:10:37;1.70;;;0.80;;
43620;SDS011;29213;50.770;7.298;2023-07-28T06:13:03;2.15;;;0.60;;
43620;SDS011;29213;50.770;7.298;2023-07-28T06:15:28;1.10;;;0.60;;
43620;SDS011;29213;50.770;7.298;2023-07-28T06:17:54;2.90;;;0.60;;
43620;SDS011;29213;50.770;7.298;2023-07-28T06:20:19;1.58;;;0.80;;
43620;SDS011;29213;50.770;7.298;2023-07-28T06:22:45;1.58;;;0.63;;
43620;SDS011;29213;50.770;7.298;2023-07-28T06:25:10;1.63;;;0.70;;
43620;SDS011;29213;50.770;7.298;2023-07-28T06:27:36;1.25;;;0.65;;
43620;SDS011;29213;50.770;7.298;2023-07-28T06:30:02;1.25;;;0.60;;
43620;SDS011;29213;50.770;7.298;2023-07-28T06:32:27;2.53;;;0.77;;
43620;SDS011;29213;50.770;7.298;2023-07-28T06:34:53;5.55;;;1.08;;
43620;SDS011;29213;50.770;7.298;2023-07-28T06:37:19;1.77;;;0.70;;
43620;SDS011;29213;50.770;7.298;2023-07-28T06:39:44;2.78;;;0.82;;
43620;SDS011;29213;50.770;7.298;2023-07-28T06:42:10;1.67;;;0.63;;
43620;SDS011;29213;50.770;7.298;2023-07-28T06:44:36;1.83;;;0.70;;
43620;SDS011;29213;50.770;7.298;2023-07-28T06:47:02;1.05;;;0.70;;
43620;SDS011;29213;50.770;7.298;2023-07-28T06:49:28;2.47;;;0.70;;
43620;SDS011;29213;50.770;7.298;2023-07-28T06:51:54;1.35;;;0.60;;
43620;SDS011;29213;50.770;7.298;2023-07-28T06:54:19;1.60;;;0.68;;
43620;SDS011;29213;50.770;7.298;2023-07-28T06:56:44;1.73;;;0.68;;
43620;SDS011;29213;50.770;7.298;2023-07-28T06:59:10;1.13;;;0.60;;
43620;SDS011;29213;50.770;7.298;2023-07-28T07:01:37;1.13;;;0.57;;
43620;SDS011;29213;50.770;7.298;2023-07-28T07:04:03;1.13;;;0.70;;
43620;SDS011;29213;50.770;7.298;2023-07-28T07:06:30;2.20;;;0.63;;
43620;SDS011;29213;50.770;7.298;2023-07-28T07:08:55;2.00;;;0.95;;
43620;SDS011;29213;50.770;7.298;2023-07-28T07:11:21;1.67;;;0.68;;
43620;SDS011;29213;50.770;7.298;2023-07-28T07:13:46;2.05;;;0.85;;
43620;SDS011;29213;50.770;7.298;2023-07-28T07:16:18;1.73;;;0.90;;
43620;SDS011;29213;50.770;7.298;2023-07-28T07:18:43;1.58;;;0.80;;
43620;SDS011;29213;50.770;7.298;2023-07-28T07:21:09;1.70;;;0.80;;
43620;SDS011;29213;50.770;7.298;2023-07-28T07:23:35;1.77;;;0.70;;
43620;SDS011;29213;50.770;7.298;2023-07-28T07:26:01;1.58;;;0.75;;
43620;SDS011;29213;50.770;7.298;2023-07-28T07:28:27;2.45;;;0.80;;
43620;SDS011;29213;50.770;7.298;2023-07-28T07:30:53;1.42;;;0.70;;
43620;SDS011;29213;50.770;7.298;2023-07-28T07:33:19;1.88;;;0.70;;
43620;SDS011;29213;50.770;7.298;2023-07-28T07:35:45;1.15;;;0.65;;
43620;SDS011;29213;50.770;7.298;2023-07-28T07:38:10;1.00;;;0.60;;
43620;SDS011;29213;50.770;7.298;2023-07-28T07:40:35;2.67;;;0.70;;
43620;SDS011;29213;50.770;7.298;2023-07-28T07:43:01;2.15;;;0.90;;
43620;SDS011;29213;50.770;7.298;2023-07-28T07:45:28;2.38;;;0.90;;
43620;SDS011;29213;50.770;7.298;2023-07-28T07:47:56;1.50;;;0.70;;
43620;SDS011;29213;50.770;7.298;2023-07-28T07:50:22;1.65;;;0.65;;
43620;SDS011;29213;50.770;7.298;2023-07-28T07:52:47;1.85;;;0.70;;
43620;SDS011;29213;50.770;7.298;2023-07-28T07:55:13;1.40;;;0.70;;
43620;SDS011;29213;50.770;7.298;2023-07-28T07:57:39;1.75;;;0.80;;
43620;SDS011;29213;50.770;7.298;2023-07-28T08:00:05;0.95;;;0.60;;
43620;SDS011;29213;50.770;7.298;2023-07-28T08:02:31;2.03;;;0.63;;
43620;SDS011;29213;50.770;7.298;2023-07-28T08:04:56;1.75;;;0.70;;
43620;SDS011;29213;50.770;7.298;2023-07-28T08:07:22;1.02;;;0.60;;
43620;SDS011;29213;50.770;7.298;2023-07-28T08:09:48;0.85;;;0.50;;
43620;SDS011;29213;50.770;7.298;2023-07-28T08:12:14;0.93;;;0.57;;
43620;SDS011;29213;50.770;7.298;2023-07-28T08:14:40;1.73;;;0.70;;
43620;SDS011;29213;50.770;7.298;2023-07-28T08:17:05;0.90;;;0.60;;
43620;SDS011;29213;50.770;7.298;2023-07-28T08:19:30;1.80;;;0.70;;
43620;SDS011;29213;50.770;7.298;2023-07-28T08:21:56;2.03;;;0.70;;
43620;SDS011;29213;50.770;7.298;2023-07-28T08:24:21;1.88;;;0.60;;
43620;SDS011;29213;50.770;7.298;2023-07-28T08:26:47;2.05;;;0.70;;
43620;SDS011;29213;50.770;7.298;2023-07-28T08:29:12;1.45;;;0.70;;
43620;SDS011;29213;50.770;7.298;2023-07-28T08:31:38;2.08;;;0.68;;
43620;SDS011;29213;50.770;7.298;2023-07-28T08:34:03;1.00;;;0.50;;
43620;SDS011;29213;50.770;7.298;2023-07-28T08:36:28;2.20;;;0.90;;
43620;SDS011;29213;50.770;7.298;2023-07-28T08:38:54;1.10;;;0.57;;
43620;SDS011;29213;50.770;7.298;2023-07-28T08:41:20;2.20;;;0.75;;
43620;SDS011;29213;50.770;7.298;2023-07-28T08:43:45;1.63;;;0.70;;
43620;SDS011;29213;50.770;7.298;2023-07-28T08:46:11;2.13;;;0.80;;
43620;SDS011;29213;50.770;7.298;2023-07-28T08:48:36;1.17;;;0.63;;
43620;SDS011;29213;50.770;7.298;2023-07-28T08:51:02;1.50;;;0.70;;
43620;SDS011;29213;50.770;7.298;2023-07-28T08:53:29;2.00;;;0.80;;
43620;SDS011;29213;50.770;7.298;2023-07-28T08:55:55;1.20;;;0.50;;
43620;SDS011;29213;50.770;7.298;2023-07-28T08:58:21;4.28;;;0.98;;
43620;SDS011;29213;50.770;7.298;2023-07-28T09:00:49;1.60;;;0.65;;
43620;SDS011;29213;50.770;7.298;2023-07-28T09:03:16;1.23;;;0.68;;
43620;SDS011;29213;50.770;7.298;2023-07-28T09:05:43;2.05;;;0.85;;
43620;SDS011;29213;50.770;7.298;2023-07-28T09:08:09;1.23;;;0.70;;
43620;SDS011;29213;50.770;7.298;2023-07-28T09:10:42;1.98;;;0.90;;
43620;SDS011;29213;50.770;7.298;2023-07-28T09:13:17;1.98;;;0.85;;
43620;SDS011;29213;50.770;7.298;2023-07-28T09:15:44;2.05;;;0.75;;
43620;SDS011;29213;50.770;7.298;2023-07-28T09:18:10;1.60;;;0.80;;
43620;SDS011;29213;50.770;7.298;2023-07-28T09:20:42;1.17;;;0.50;;
43620;SDS011;29213;50.770;7.298;2023-07-28T09:23:09;1.95;;;0.80;;
43620;SDS011;29213;50.770;7.298;2023-07-28T09:25:35;1.27;;;0.60;;
43620;SDS011;29213;50.770;7.298;2023-07-28T09:28:02;0.88;;;0.50;;
43620;SDS011;29213;50.770;7.298;2023-07-28T09:30:42;1.70;;;0.68;;
43620;SDS011;29213;50.770;7.298;2023-07-28T09:33:09;2.22;;;0.70;;
43620;SDS011;29213;50.770;7.298;2023-07-28T09:35:35;1.35;;;0.60;;
43620;SDS011;29213;50.770;7.298;2023-07-28T09:38:12;1.05;;;0.52;;
43620;SDS011;29213;50.770;7.298;2023-07-28T09:40:39;2.38;;;0.73;;
43620;SDS011;29213;50.770;7.298;2023-07-28T09:43:05;1.02;;;0.60;;
43620;SDS011;29213;50.770;7.298;2023-07-28T09:45:31;1.10;;;0.55;;
43620;SDS011;29213;50.770;7.298;2023-07-28T09:47:58;1.20;;;0.60;;
43620;SDS011;29213;50.770;7.298;2023-07-28T09:50:25;1.40;;;0.60;;
43620;SDS011;29213;50.770;7.298;2023-07-28T09:52:53;1.35;;;0.70;;
43620;SDS011;29213;50.770;7.298;2023-07-28T09:55:19;1.23;;;0.70;;
43620;SDS011;29213;50.770;7.298;2023-07-28T09:57:46;1.58;;;0.60;;
43620;SDS011;29213;50.770;7.298;2023-07-28T10:00:16;0.85;;;0.50;;
43620;SDS011;29213;50.770;7.298;2023-07-28T10:02:43;1.27;;;0.60;;
43620;SDS011;29213;50.770;7.298;2023-07-28T10:05:09;0.88;;;0.50;;
43620;SDS011;29213;50.770;7.298;2023-07-28T10:07:36;2.03;;;0.60;;
43620;SDS011;29213;50.770;7.298;2023-07-28T10:10:07;1.35;;;0.60;;
43620;SDS011;29213;50.770;7.298;2023-07-28T10:12:48;1.25;;;0.60;;
43620;SDS011;29213;50.770;7.298;2023-07-28T10:15:19;0.95;;;0.57;;
43620;SDS011;29213;50.770;7.298;2023-07-28T10:17:47;1.00;;;0.50;;
43620;SDS011;29213;50.770;7.298;2023-07-28T10:20:34;1.48;;;0.60;;
43620;SDS011;29213;50.770;7.298;2023-07-28T10:25:34;1.25;;;0.60;;
43620;SDS011;29213;50.770;7.298;2023-07-28T10:28:01;0.52;;;0.50;;
43620;SDS011;29213;50.770;7.298;2023-07-28T10:30:27;0.98;;;0.50;;
43620;SDS011;29213;50.770;7.298;2023-07-28T10:32:54;1.08;;;0.60;;
43620;SDS011;29213;50.770;7.298;2023-07-28T10:35:24;1.08;;;0.60;;
43620;SDS011;29213;50.770;7.298;2023-07-28T10:37:53;1.20;;;0.50;;
43620;SDS011;29213;50.770;7.298;2023-07-28T10:40:26;0.80;;;0.43;;
43620;SDS011;29213;50.770;7.298;2023-07-28T10:42:56;0.68;;;0.40;;
43620;SDS011;29213;50.770;7.298;2023-07-28T10:45:22;1.10;;;0.50;;
43620;SDS011;29213;50.770;7.298;2023-07-28T10:47:50;0.52;;;0.35;;
43620;SDS011;29213;50.770;7.298;2023-07-28T10:50:17;0.30;;;0.30;;
43620;SDS011;29213;50.770;7.298;2023-07-28T10:52:44;0.50;;;0.40;;
43620;SDS011;29213;50.770;7.298;2023-07-28T10:55:14;0.63;;;0.35;;
43620;SDS011;29213;50.770;7.298;2023-07-28T10:57:47;0.30;;;0.30;;
43620;SDS011;29213;50.770;7.298;2023-07-28T11:00:15;0.43;;;0.30;;
43620;SDS011;29213;50.770;7.298;2023-07-28T11:02:43;0.75;;;0.43;;
43620;SDS011;29213;50.770;7.298;2023-07-28T11:05:10;1.50;;;0.68;;
43620;SDS011;29213;50.770;7.298;2023-07-28T11:07:44;1.23;;;0.65;;
43620;SDS011;29213;50.770;7.298;2023-07-28T11:10:11;2.33;;;0.70;;
43620;SDS011;29213;50.770;7.298;2023-07-28T11:12:44;1.58;;;0.50;;
43620;SDS011;29213;50.770;7.298;2023-07-28T11:15:12;1.30;;;0.60;;
43620;SDS011;29213;50.770;7.298;2023-07-28T11:17:44;1.30;;;0.60;;
43620;SDS011;29213;50.770;7.298;2023-07-28T11:22:52;1.08;;;0.55;;
43620;SDS011;29213;50.770;7.298;2023-07-28T11:25:19;1.38;;;0.60;;
43620;SDS011;29213;50.770;7.298;2023-07-28T11:27:46;1.05;;;0.50;;
43620;SDS011;29213;50.770;7.298;2023-07-28T11:30:12;1.42;;;0.60;;
43620;SDS011;29213;50.770;7.298;2023-07-28T11:32:39;1.02;;;0.50;;
43620;SDS011;29213;50.770;7.298;2023-07-28T11:35:08;0.88;;;0.50;;
43620;SDS011;29213;50.770;7.298;2023-07-28T11:37:35;0.88;;;0.45;;
43620;SDS011;29213;50.770;7.298;2023-07-28T11:40:02;0.47;;;0.38;;
43620;SDS011;29213;50.770;7.298;2023-07-28T11:42:32;0.90;;;0.40;;
43620;SDS011;29213;50.770;7.298;2023-07-28T11:45:00;0.33;;;0.30;;
43620;SDS011;29213;50.770;7.298;2023-07-28T11:47:27;0.93;;;0.40;;
43620;SDS011;29213;50.770;7.298;2023-07-28T11:49:52;0.43;;;0.35;;
43620;SDS011;29213;50.770;7.298;2023-07-28T11:52:18;0.88;;;0.40;;
43620;SDS011;29213;50.770;7.298;2023-07-28T11:54:44;0.45;;;0.40;;
43620;SDS011;29213;50.770;7.298;2023-07-28T11:57:10;2.92;;;0.60;;
43620;SDS011;29213;50.770;7.298;2023-07-28T11:59:35;1.17;;;0.60;;
43620;SDS011;29213;50.770;7.298;2023-07-28T12:02:01;1.52;;;0.50;;
43620;SDS011;29213;50.770;7.298;2023-07-28T12:04:39;1.13;;;0.50;;
43620;SDS011;29213;50.770;7.298;2023-07-28T12:09:33;0.65;;;0.40;;
43620;SDS011;29213;50.770;7.298;2023-07-28T12:12:28;0.77;;;0.50;;
43620;SDS011;29213;50.770;7.298;2023-07-28T12:14:55;0.60;;;0.50;;
43620;SDS011;29213;50.770;7.298;2023-07-28T12:17:22;1.27;;;0.50;;
43620;SDS011;29213;50.770;7.298;2023-07-28T12:22:43;0.65;;;0.43;;
43620;SDS011;29213;50.770;7.298;2023-07-28T12:25:10;0.82;;;0.50;;
43620;SDS011;29213;50.770;7.298;2023-07-28T12:27:36;1.15;;;0.60;;
43620;SDS011;29213;50.770;7.298;2023-07-28T12:30:03;1.50;;;0.40;;
43620;SDS011;29213;50.770;7.298;2023-07-28T12:32:29;1.75;;;0.50;;
43620;SDS011;29213;50.770;7.298;2023-07-28T12:34:55;0.43;;;0.40;;
43620;SDS011;29213;50.770;7.298;2023-07-28T12:37:20;0.98;;;0.40;;
43620;SDS011;29213;50.770;7.298;2023-07-28T12:39:46;0.30;;;0.30;;
43620;SDS011;29213;50.770;7.298;2023-07-28T12:42:13;0.32;;;0.30;;
43620;SDS011;29213;50.770;7.298;2023-07-28T12:44:40;0.40;;;0.40;;
43620;SDS011;29213;50.770;7.298;2023-07-28T12:47:06;0.85;;;0.50;;
43620;SDS011;29213;50.770;7.298;2023-07-28T12:49:32;0.32;;;0.32;;
43620;SDS011;29213;50.770;7.298;2023-07-28T12:52:00;2.20;;;0.90;;
43620;SDS011;29213;50.770;7.298;2023-07-28T12:54:26;0.73;;;0.50;;
43620;SDS011;29213;50.770;7.298;2023-07-28T12:56:52;0.65;;;0.40;;
43620;SDS011;29213;50.770;7.298;2023-07-28T12:59:18;0.50;;;0.40;;
43620;SDS011;29213;50.770;7.298;2023-07-28T13:01:44;0.70;;;0.30;;
43620;SDS011;29213;50.770;7.298;2023-07-28T13:04:10;5.57;;;1.40;;
43620;SDS011;29213;50.770;7.298;2023-07-28T13:06:36;7.13;;;1.67;;
43620;SDS011;29213;50.770;7.298;2023-07-28T13:09:02;3.00;;;1.10;;
43620;SDS011;29213;50.770;7.298;2023-07-28T13:11:28;2.45;;;0.80;;
43620;SDS011;29213;50.770;7.298;2023-07-28T13:13:54;0.73;;;0.50;;
43620;SDS011;29213;50.770;7.298;2023-07-28T13:16:19;1.27;;;0.68;;
43620;SDS011;29213;50.770;7.298;2023-07-28T13:18:45;1.08;;;0.50;;
43620;SDS011;29213;50.770;7.298;2023-07-28T13:21:10;2.03;;;0.60;;
43620;SDS011;29213;50.770;7.298;2023-07-28T13:23:36;1.23;;;0.57;;
43620;SDS011;29213;50.770;7.298;2023-07-28T13:26:02;3.08;;;0.70;;
43620;SDS011;29213;50.770;7.298;2023-07-28T13:28:31;0.80;;;0.50;;
43620;SDS011;29213;50.770;7.298;2023-07-28T13:31:01;1.25;;;0.40;;
43620;SDS011;29213;50.770;7.298;2023-07-28T13:33:26;1.80;;;0.50;;
43620;SDS011;29213;50.770;7.298;2023-07-28T13:35:52;0.57;;;0.40;;
43620;SDS011;29213;50.770;7.298;2023-07-28T13:38:17;0.68;;;0.30;;
43620;SDS011;29213;50.770;7.298;2023-07-28T13:40:43;0.40;;;0.40;;
43620;SDS011;29213;50.770;7.298;2023-07-28T13:43:08;0.40;;;0.40;;
43620;SDS011;29213;50.770;7.298;2023-07-28T13:45:33;1.70;;;0.50;;
43620;SDS011;29213;50.770;7.298;2023-07-28T13:47:59;0.40;;;0.38;;
43620;SDS011;29213;50.770;7.298;2023-07-28T13:50:24;0.52;;;0.40;;
43620;SDS011;29213;50.770;7.298;2023-07-28T13:52:50;0.60;;;0.40;;
43620;SDS011;29213;50.770;7.298;2023-07-28T13:55:15;0.45;;;0.40;;
43620;SDS011;29213;50.770;7.298;2023-07-28T13:57:40;1.35;;;0.30;;
43620;SDS011;29213;50.770;7.298;2023-07-28T14:00:06;0.63;;;0.45;;
43620;SDS011;29213;50.770;7.298;2023-07-28T14:02:37;0.90;;;0.55;;
43620;SDS011;29213;50.770;7.298;2023-07-28T14:05:03;0.75;;;0.43;;
43620;SDS011;29213;50.770;7.298;2023-07-28T14:07:29;1.08;;;0.57;;
43620;SDS011;29213;50.770;7.298;2023-07-28T14:09:54;1.08;;;0.70;;
43620;SDS011;29213;50.770;7.298;2023-07-28T14:12:20;1.85;;;0.60;;
43620;SDS011;29213;50.770;7.298;2023-07-28T14:14:45;1.40;;;0.70;;
43620;SDS011;29213;50.770;7.298;2023-07-28T14:17:11;5.93;;;0.90;;
43620;SDS011;29213;50.770;7.298;2023-07-28T14:19:37;1.70;;;0.73;;
43620;SDS011;29213;50.770;7.298;2023-07-28T14:22:04;2.22;;;0.90;;
43620;SDS011;29213;50.770;7.298;2023-07-28T14:24:29;4.45;;;1.00;;
43620;SDS011;29213;50.770;7.298;2023-07-28T14:26:55;7.78;;;1.73;;
43620;SDS011;29213;50.770;7.298;2023-07-28T14:29:20;2.05;;;0.98;;
43620;SDS011;29213;50.770;7.298;2023-07-28T14:31:46;4.13;;;1.20;;
43620;SDS011;29213;50.770;7.298;2023-07-28T14:34:11;5.38;;;1.65;;
43620;SDS011;29213;50.770;7.298;2023-07-28T14:36:37;2.97;;;1.20;;
43620;SDS011;29213;50.770;7.298;2023-07-28T14:39:03;3.97;;;1.00;;
43620;SDS011;29213;50.770;7.298;2023-07-28T14:41:28;2.38;;;0.98;;
43620;SDS011;29213;50.770;7.298;2023-07-28T14:43:54;2.38;;;0.90;;
43620;SDS011;29213;50.770;7.298;2023-07-28T14:46:19;2.53;;;0.90;;
43620;SDS011;29213;50.770;7.298;2023-07-28T14:48:47;1.85;;;0.75;;
43620;SDS011;29213;50.770;7.298;2023-07-28T14:51:14;2.08;;;0.88;;
43620;SDS011;29213;50.770;7.298;2023-07-28T14:53:40;2.13;;;1.00;;
43620;SDS011;29213;50.770;7.298;2023-07-28T14:56:06;2.80;;;1.30;;